Time;durP1;ratioP1;P1;durP2;ratioP2;P2;SDS_P1;SDS_P2;PMS_P1;PMS_P2;Temp;Humidity;BMP_temperature;BMP_pressure;BME280_temperature;BME280_humidity;BME280_pressure;Samples;Min_cycle;Max_cycle;Signal;HPM_P1;HPM_P2
2022/10/19 00:00:03;;;;;;;12.90;5.70;;;;;;;8.25;98.30;102833.84;5053025;28;20020;-55
2022/10/19 00:02:28;;;;;;;12.07;5.68;;;;;;;8.23;98.28;102828.59;5062455;28;20395;-55
2022/10/19 00:04:54;;;;;;;11.65;5.40;;;;;;;8.20;97.94;102823.41;5070777;28;20033;-56
2022/10/19 00:07:19;;;;;;;14.13;6.05;;;;;;;8.18;98.77;102819.94;5071023;28;20058;-55
2022/10/19 00:09:44;;;;;;;16.10;5.97;;;;;;;8.18;98.97;102824.34;5052806;28;20028;-56
2022/10/19 00:12:11;;;;;;;12.55;5.97;;;;;;;8.14;99.15;102821.84;5029309;28;20509;-55
2022/10/19 00:14:36;;;;;;;13.48;6.18;;;;;;;8.13;99.19;102817.47;5057718;28;20545;-55
2022/10/19 00:17:01;;;;;;;13.80;6.57;;;;;;;8.13;99.59;102816.59;5066544;28;20111;-56
2022/10/19 00:19:27;;;;;;;17.05;5.80;;;;;;;8.12;100.00;102817.50;5071014;28;20047;-56
2022/10/19 00:21:53;;;;;;;12.00;6.07;;;;;;;8.11;100.00;102819.28;5071475;28;20107;-56
2022/10/19 00:24:19;;;;;;;16.63;6.30;;;;;;;8.09;100.00;102821.13;5060072;28;20041;-56
2022/10/19 00:26:44;;;;;;;13.48;6.28;;;;;;;8.09;100.00;102807.91;5053063;28;20079;-55
2022/10/19 00:29:11;;;;;;;13.85;6.03;;;;;;;8.10;100.00;102801.69;5070446;28;20032;-55
2022/10/19 00:31:36;;;;;;;13.10;6.47;;;;;;;8.09;100.00;102805.25;5069544;28;20032;-55
2022/10/19 00:34:01;;;;;;;20.30;6.97;;;;;;;8.10;100.00;102806.97;5049027;28;20024;-55
2022/10/19 00:36:31;;;;;;;14.20;6.75;;;;;;;8.07;100.00;102801.78;5071096;28;20485;-55
2022/10/19 00:38:57;;;;;;;17.27;7.38;;;;;;;8.09;100.00;102802.63;5050974;28;20025;-54
2022/10/19 00:41:25;;;;;;;18.70;6.82;;;;;;;8.00;100.00;102794.13;5050973;28;20025;-55
2022/10/19 00:43:52;;;;;;;18.48;7.18;;;;;;;8.05;100.00;102805.41;5069725;28;20029;-56
2022/10/19 00:46:17;;;;;;;16.63;6.75;;;;;;;8.05;100.00;102814.22;5050996;28;20032;-55
2022/10/19 00:48:42;;;;;;;17.88;7.13;;;;;;;8.02;100.00;102810.81;5088980;22;20040;-53
2022/10/19 00:51:08;;;;;;;16.65;7.10;;;;;;;8.01;100.00;102807.31;5081253;28;20552;-51
2022/10/19 00:53:35;;;;;;;14.57;6.93;;;;;;;8.01;100.00;102811.72;5089162;28;20032;-55
2022/10/19 00:56:05;;;;;;;16.65;7.22;;;;;;;8.00;100.00;102817.94;5096558;28;20024;-54
2022/10/19 00:58:30;;;;;;;18.40;7.10;;;;;;;8.04;100.00;102817.75;5085516;28;20032;-54
2022/10/19 01:00:58;;;;;;;18.52;7.40;;;;;;;8.01;100.00;102820.53;5095974;28;20023;-54
2022/10/19 01:03:23;;;;;;;19.08;7.50;;;;;;;8.00;100.00;102813.50;5096264;28;20032;-55
2022/10/19 01:05:48;;;;;;;14.35;7.30;;;;;;;8.00;100.00;102815.28;5096781;28;20085;-55
2022/10/19 01:08:14;;;;;;;17.98;7.35;;;;;;;7.99;100.00;102816.19;5097217;28;20024;-54
2022/10/19 01:10:56;;;;;;;14.50;7.18;;;;;;;7.99;100.00;102816.19;5095717;28;20028;-54
2022/10/19 01:13:35;;;;;;;15.15;7.22;;;;;;;8.00;100.00;102815.28;5097154;28;20481;-54
2022/10/19 01:16:22;;;;;;;12.88;7.38;;;;;;;7.96;100.00;102804.81;5096695;28;20032;-56
2022/10/19 01:19:05;;;;;;;13.60;6.97;;;;;;;7.98;100.00;102810.06;5096835;28;20043;-54
2022/10/19 01:21:51;;;;;;;15.48;7.03;;;;;;;7.97;100.00;102809.16;5096662;28;20448;-53
2022/10/19 01:24:33;;;;;;;13.00;7.18;;;;;;;7.95;100.00;102813.66;5098847;28;20028;-54
2022/10/19 01:27:19;;;;;;;10.50;6.88;;;;;;;7.96;100.00;102804.81;5100786;28;20061;-55
2022/10/19 01:30:03;;;;;;;14.98;6.88;;;;;;;7.95;100.00;102810.16;5095902;28;20079;-54
2022/10/19 01:32:42;;;;;;;17.92;7.22;;;;;;;7.92;100.00;102808.47;5094576;28;20095;-53
2022/10/19 01:35:26;;;;;;;15.23;7.50;;;;;;;7.90;100.00;102798.88;5094875;28;20024;-54
2022/10/19 01:38:15;;;;;;;14.30;7.55;;;;;;;7.88;100.00;102795.41;5095016;28;20032;-53
2022/10/19 01:40:51;;;;;;;14.57;7.53;;;;;;;7.87;100.00;102801.59;5097424;28;20405;-52
2022/10/19 01:43:29;;;;;;;17.50;7.20;;;;;;;7.87;100.00;102802.47;5105624;28;20385;-53
2022/10/19 01:46:27;;;;;;;15.02;7.70;;;;;;;7.87;100.00;102801.59;5098405;28;20039;-52
2022/10/19 01:49:02;;;;;;;14.55;6.75;;;;;;;7.83;100.00;102802.59;5090952;28;20047;-51
2022/10/19 01:51:32;;;;;;;13.80;6.78;;;;;;;7.81;100.00;102800.03;5095173;28;20020;-52
2022/10/19 01:54:03;;;;;;;11.93;6.90;;;;;;;7.81;100.00;102800.03;5095151;28;20035;-54
2022/10/19 01:56:30;;;;;;;11.65;7.05;;;;;;;7.78;100.00;102798.34;5086203;28;20192;-54
2022/10/19 01:59:00;;;;;;;11.40;6.50;;;;;;;7.75;100.00;102785.22;5088702;28;20024;-53
2022/10/19 02:01:30;;;;;;;10.38;6.93;;;;;;;7.76;100.00;102786.06;5094583;28;20040;-53
2022/10/19 02:03:56;;;;;;;20.58;7.95;;;;;;;7.75;100.00;102782.56;5095698;28;20060;-56
2022/10/19 02:06:22;;;;;;;12.85;6.85;;;;;;;7.76;100.00;102783.44;5095620;28;20055;-53
2022/10/19 02:08:50;;;;;;;12.60;6.95;;;;;;;7.73;100.00;102776.47;5105272;28;20028;-54
2022/10/19 02:11:17;;;;;;;16.17;7.30;;;;;;;7.71;100.00;102769.50;5096449;28;20035;-54
2022/10/19 02:13:45;;;;;;;15.50;7.25;;;;;;;7.68;100.00;102764.34;5096011;28;20099;-56
2022/10/19 02:16:17;;;;;;;15.40;7.32;;;;;;;7.67;100.00;102755.53;5092541;28;20028;-55
2022/10/19 02:18:46;;;;;;;15.05;7.47;;;;;;;7.67;100.00;102760.81;5091374;28;20024;-54
2022/10/19 02:21:11;;;;;;;14.88;7.50;;;;;;;7.66;100.00;102755.56;5096551;28;20141;-54
2022/10/19 02:23:38;;;;;;;12.45;7.00;;;;;;;7.64;100.00;102757.41;5085164;28;20088;-54
2022/10/19 02:26:03;;;;;;;15.95;6.82;;;;;;;7.63;100.00;102753.91;5101067;28;20028;-54
2022/10/19 02:28:30;;;;;;;15.65;7.70;;;;;;;7.62;100.00;102757.47;5098670;28;20039;-55
2022/10/19 02:30:56;;;;;;;18.20;7.72;;;;;;;7.61;100.00;102755.75;5100547;28;20020;-54
2022/10/19 02:33:22;;;;;;;13.82;7.32;;;;;;;7.59;100.00;102745.22;5098012;28;20032;-55
2022/10/19 02:35:47;;;;;;;10.93;6.78;;;;;;;7.60;100.00;102746.94;5100249;28;20111;-52
2022/10/19 02:38:18;;;;;;;13.55;7.63;;;;;;;7.58;100.00;102743.47;5096250;28;20020;-55
2022/10/19 02:40:50;;;;;;;14.13;7.07;;;;;;;7.56;100.00;102739.13;5099268;28;20054;-55
2022/10/19 02:43:20;;;;;;;11.07;7.10;;;;;;;7.56;100.00;102739.13;5088639;28;20032;-56
2022/10/19 02:46:31;;;;;;;13.48;6.75;;;;;;;7.58;100.00;102735.53;5091744;28;20020;-54
2022/10/19 02:48:57;;;;;;;12.98;6.50;;;;;;;7.53;100.00;102731.34;5080868;28;20044;-56
2022/10/19 02:51:34;;;;;;;11.65;6.72;;;;;;;7.51;100.00;102731.38;5081653;28;20024;-56
2022/10/19 02:54:00;;;;;;;17.77;7.53;;;;;;;7.48;100.00;102734.13;5084336;28;20042;-55
2022/10/19 02:56:25;;;;;;;14.38;7.07;;;;;;;7.45;100.00;102736.88;5089141;28;20397;-55
2022/10/19 02:58:51;;;;;;;13.48;6.53;;;;;;;7.44;100.00;102742.19;5089603;28;20016;-55
2022/10/19 03:01:16;;;;;;;13.95;7.43;;;;;;;7.42;100.00;102736.97;5090191;28;20042;-52
2022/10/19 03:03:41;;;;;;;15.00;7.43;;;;;;;7.41;100.00;102727.28;5100322;28;20024;-55
2022/10/19 03:06:06;;;;;;;10.25;6.63;;;;;;;7.40;100.00;102733.50;5088507;28;20106;-54
2022/10/19 03:08:32;;;;;;;11.88;6.60;;;;;;;7.40;100.00;102736.16;5090574;28;20496;-55
2022/10/19 03:10:58;;;;;;;10.50;6.45;;;;;;;7.36;100.00;102730.13;5099888;28;20055;-54
2022/10/19 03:13:23;;;;;;;15.60;7.00;;;;;;;7.34;100.00;102739.00;5103158;28;20027;-55
2022/10/19 03:15:49;;;;;;;15.52;6.82;;;;;;;7.32;100.00;102738.19;5097830;28;20032;-55
2022/10/19 03:18:14;;;;;;;12.75;6.40;;;;;;;7.30;100.00;102748.81;5098222;28;20028;-55
2022/10/19 03:20:39;;;;;;;15.05;7.10;;;;;;;7.28;100.00;102745.34;5093637;28;20031;-52
2022/10/19 03:23:05;;;;;;;13.80;6.90;;;;;;;7.28;100.00;102740.06;5083878;28;20036;-54
2022/10/19 03:25:30;;;;;;;10.82;6.57;;;;;;;7.27;100.00;102740.97;5075451;28;20032;-54
2022/10/19 03:27:55;;;;;;;11.05;5.95;;;;;;;7.27;100.00;102740.13;5092601;28;20028;-55
2022/10/19 03:30:20;;;;;;;14.95;6.80;;;;;;;7.26;100.00;102735.72;5098734;28;20488;-56
2022/10/19 03:32:46;;;;;;;14.20;6.20;;;;;;;7.22;100.00;102735.81;5099256;28;20069;-54
2022/10/19 03:35:11;;;;;;;10.82;6.03;;;;;;;7.21;100.00;102730.59;5087545;28;20036;-52
2022/10/19 03:37:36;;;;;;;13.15;5.82;;;;;;;7.17;100.00;102727.19;5100421;28;20091;-54
2022/10/19 03:40:02;;;;;;;13.48;6.70;;;;;;;7.15;100.00;102731.66;5097061;28;20085;-52
2022/10/19 03:42:27;;;;;;;12.32;6.18;;;;;;;7.16;100.00;102735.16;5094009;28;20040;-51
2022/10/19 03:44:52;;;;;;;15.35;6.25;;;;;;;7.14;100.00;102729.91;5100486;28;20088;-55
2022/10/19 03:47:18;;;;;;;11.70;6.03;;;;;;;7.10;100.00;102730.94;5095753;28;20553;-53
2022/10/19 03:49:43;;;;;;;14.00;5.80;;;;;;;7.06;100.00;102737.25;5099507;28;20050;-56
2022/10/19 03:52:08;;;;;;;13.48;5.90;;;;;;;7.08;100.00;102732.78;5103607;28;20129;-56
2022/10/19 03:54:34;;;;;;;11.57;6.07;;;;;;;7.05;100.00;102738.16;5098654;28;20062;-55
2022/10/19 03:56:59;;;;;;;9.43;6.30;;;;;;;7.03;100.00;102738.19;5084329;28;20027;-55
2022/10/19 03:59:25;;;;;;;12.93;6.15;;;;;;;6.99;100.00;102743.63;5094005;28;20473;-55
2022/10/19 04:01:50;;;;;;;9.98;6.10;;;;;;;6.97;100.00;102737.53;5099193;28;20051;-56
2022/10/19 04:04:18;;;;;;;13.13;6.95;;;;;;;6.95;100.00;102742.84;5098564;28;20059;-56
2022/10/19 04:06:46;;;;;;;17.00;6.97;;;;;;;6.96;100.00;102741.06;5088568;28;20409;-55
2022/10/19 04:09:14;;;;;;;10.05;6.50;;;;;;;6.96;100.00;102744.59;5098021;28;20028;-55
2022/10/19 04:11:40;;;;;;;14.07;7.15;;;;;;;6.95;100.00;102744.66;5097919;28;20428;-53
2022/10/19 04:14:06;;;;;;;10.27;6.60;;;;;;;6.94;100.00;102733.19;5099112;28;20073;-53
2022/10/19 04:16:31;;;;;;;14.60;6.32;;;;;;;6.92;100.00;102731.53;5095176;28;20062;-55
2022/10/19 04:18:57;;;;;;;11.80;6.25;;;;;;;6.90;100.00;102731.56;5098440;28;20028;-54
2022/10/19 04:21:25;;;;;;;12.43;7.22;;;;;;;6.85;100.00;102731.69;5099237;28;20092;-55
2022/10/19 04:23:53;;;;;;;10.63;6.63;;;;;;;6.86;100.00;102729.91;5091356;28;20389;-56
2022/10/19 04:26:19;;;;;;;10.45;6.45;;;;;;;6.82;100.00;102728.28;5101301;28;20031;-54
2022/10/19 04:28:44;;;;;;;12.00;6.20;;;;;;;6.81;100.00;102734.47;5100558;28;20371;-54
2022/10/19 04:31:11;;;;;;;11.38;6.88;;;;;;;6.78;100.00;102724.88;5093527;28;20031;-54
2022/10/19 04:33:37;;;;;;;12.50;6.80;;;;;;;6.76;100.00;102721.44;5097814;28;20035;-55
2022/10/19 04:36:05;;;;;;;13.32;6.57;;;;;;;6.75;100.00;102719.69;5100665;28;20024;-54
2022/10/19 04:38:30;;;;;;;15.07;7.18;;;;;;;6.74;100.00;102722.38;5097101;28;20058;-54
2022/10/19 04:41:02;;;;;;;13.63;7.47;;;;;;;6.71;100.00;102722.47;5098199;28;20028;-56
2022/10/19 04:43:27;;;;;;;15.00;6.93;;;;;;;6.70;100.00;102720.75;5092995;28;20035;-54
2022/10/19 04:45:52;;;;;;;14.18;7.43;;;;;;;6.67;100.00;102725.19;5098539;28;20111;-55
2022/10/19 04:48:17;;;;;;;13.00;6.90;;;;;;;6.67;100.00;102726.97;5099582;28;20031;-55
2022/10/19 04:50:43;;;;;;;17.02;7.32;;;;;;;6.67;100.00;102722.56;5098879;28;20169;-54
2022/10/19 04:53:08;;;;;;;12.45;6.82;;;;;;;6.68;100.00;102720.81;5096277;28;20047;-53
2022/10/19 04:55:33;;;;;;;14.73;7.25;;;;;;;6.68;100.00;102731.38;5099191;28;20024;-53
2022/10/19 04:57:58;;;;;;;13.55;6.78;;;;;;;6.67;100.00;102730.47;5082457;28;20020;-53
2022/10/19 05:00:24;;;;;;;17.70;7.47;;;;;;;6.68;100.00;102728.72;5089160;28;20024;-54
2022/10/19 05:02:49;;;;;;;14.32;7.45;;;;;;;6.67;100.00;102727.84;5097501;28;20032;-55
2022/10/19 05:05:14;;;;;;;15.63;6.95;;;;;;;6.65;100.00;102729.66;5097937;28;20035;-55
2022/10/19 05:07:40;;;;;;;13.32;5.90;;;;;;;6.67;100.00;102734.91;5095540;28;20023;-53
2022/10/19 05:10:06;;;;;;;13.98;6.93;;;;;;;6.64;100.00;102729.72;5097939;28;20397;-55
2022/10/19 05:12:34;;;;;;;11.32;6.60;;;;;;;6.63;100.00;102728.00;5085314;28;20028;-55
2022/10/19 05:14:59;;;;;;;13.00;7.28;;;;;;;6.64;100.00;102727.06;5098277;28;20032;-53
2022/10/19 05:17:25;;;;;;;13.38;7.78;;;;;;;6.62;100.00;102728.91;5098354;28;20107;-57
2022/10/19 05:19:50;;;;;;;18.15;7.85;;;;;;;6.62;100.00;102716.53;5097388;28;20024;-52
2022/10/19 05:22:15;;;;;;;15.63;7.72;;;;;;;6.59;100.00;102723.69;5089350;28;20016;-55
2022/10/19 05:24:40;;;;;;;14.50;8.15;;;;;;;6.57;100.00;102713.19;5099372;28;20026;-52
2022/10/19 05:27:06;;;;;;;14.30;7.38;;;;;;;6.57;100.00;102715.81;5097770;28;20031;-54
2022/10/19 05:29:32;;;;;;;15.02;7.47;;;;;;;6.53;100.00;102713.31;5090159;28;20028;-53
2022/10/19 05:31:58;;;;;;;15.82;7.55;;;;;;;6.50;100.00;102706.38;5098075;28;20389;-54
2022/10/19 05:34:23;;;;;;;16.60;7.70;;;;;;;6.51;100.00;102705.44;5098023;28;20102;-54
2022/10/19 05:36:48;;;;;;;14.32;8.18;;;;;;;6.50;100.00;102702.88;5098093;28;20058;-55
2022/10/19 05:39:16;;;;;;;12.80;7.85;;;;;;;6.48;100.00;102700.28;5089977;28;20032;-54
2022/10/19 05:41:46;;;;;;;15.98;8.05;;;;;;;6.48;100.00;102698.50;5099153;28;20127;-53
2022/10/19 05:44:20;;;;;;;17.95;8.07;;;;;;;6.47;100.00;102694.09;5098025;28;20028;-55
2022/10/19 05:46:46;;;;;;;11.65;7.57;;;;;;;6.45;100.00;102701.22;5098619;28;20020;-55
2022/10/19 05:49:12;;;;;;;14.80;8.00;;;;;;;6.45;100.00;102703.00;5091485;28;20049;-55
2022/10/19 05:51:38;;;;;;;15.88;8.07;;;;;;;6.44;100.00;102695.97;5100779;28;20095;-55
2022/10/19 05:54:04;;;;;;;16.15;8.00;;;;;;;6.43;100.00;102697.75;5098985;28;20052;-55
2022/10/19 05:56:31;;;;;;;19.58;8.57;;;;;;;6.41;100.00;102699.59;5093304;28;20120;-54
2022/10/19 05:58:58;;;;;;;16.45;8.18;;;;;;;6.40;100.00;102695.22;5100138;28;20039;-53
2022/10/19 06:01:24;;;;;;;12.98;8.70;;;;;;;6.41;100.00;102698.69;5094558;28;20497;-54
2022/10/19 06:03:51;;;;;;;17.98;9.07;;;;;;;6.38;100.00;102689.13;5089337;28;20020;-54
2022/10/19 06:06:17;;;;;;;17.48;9.25;;;;;;;6.38;100.00;102693.50;5100078;28;20118;-55
2022/10/19 06:08:42;;;;;;;16.00;8.48;;;;;;;6.37;100.00;102682.09;5096433;28;20449;-55
2022/10/19 06:11:16;;;;;;;12.15;7.93;;;;;;;6.39;100.00;102689.97;5094154;28;20028;-56
2022/10/19 06:13:42;;;;;;;14.95;8.80;;;;;;;6.38;100.00;102685.59;5096540;28;20053;-55
2022/10/19 06:16:10;;;;;;;14.80;8.38;;;;;;;6.36;100.00;102685.66;5089168;28;20036;-55
2022/10/19 06:18:37;;;;;;;19.27;9.57;;;;;;;6.34;100.00;102682.19;5094898;28;20084;-55
2022/10/19 06:21:04;;;;;;;16.38;9.70;;;;;;;6.35;100.00;102683.06;5074939;28;20473;-54
2022/10/19 06:23:33;;;;;;;14.57;9.63;;;;;;;6.34;100.00;102686.59;5091501;28;20055;-53
2022/10/19 06:26:02;;;;;;;16.17;9.18;;;;;;;6.34;100.00;102686.59;5067742;28;20029;-54
2022/10/19 06:28:27;;;;;;;23.27;10.20;;;;;;;6.34;100.00;102682.19;5083695;28;20059;-54
2022/10/19 06:30:53;;;;;;;20.00;9.70;;;;;;;6.33;100.00;102690.13;5084128;28;20702;-56
2022/10/19 06:33:18;;;;;;;21.65;10.43;;;;;;;6.34;100.00;102691.88;5079724;28;20032;-54
2022/10/19 06:35:43;;;;;;;19.08;10.25;;;;;;;6.33;100.00;102693.66;5083970;28;20453;-52
2022/10/19 06:38:08;;;;;;;24.50;10.68;;;;;;;6.35;100.00;102691.00;5085685;28;20098;-54
2022/10/19 06:40:35;;;;;;;29.13;10.40;;;;;;;6.35;100.00;102693.63;5083137;28;20028;-56
2022/10/19 06:43:00;;;;;;;31.63;11.10;;;;;;;6.37;100.00;102692.66;5081971;28;20048;-56
2022/10/19 06:45:26;;;;;;;18.23;10.48;;;;;;;6.37;100.00;102689.16;5081115;28;20367;-55
2022/10/19 06:47:51;;;;;;;22.25;10.45;;;;;;;6.38;100.00;102689.13;5081211;28;20048;-55
2022/10/19 06:50:16;;;;;;;16.98;10.02;;;;;;;6.40;100.00;102700.50;5084164;28;20127;-55
2022/10/19 06:52:42;;;;;;;20.30;10.75;;;;;;;6.42;100.00;102692.53;5081632;28;20043;-55
2022/10/19 06:55:07;;;;;;;17.52;10.45;;;;;;;6.43;100.00;102692.47;5081704;28;20072;-54
2022/10/19 06:57:33;;;;;;;20.25;10.68;;;;;;;6.45;100.00;102693.28;5081179;28;20032;-56
2022/10/19 06:59:58;;;;;;;24.67;10.65;;;;;;;6.46;100.00;102700.31;5086335;28;20017;-56
2022/10/19 07:02:23;;;;;;;17.67;10.43;;;;;;;6.50;100.00;102697.59;5084724;28;20041;-53
2022/10/19 07:04:48;;;;;;;21.05;11.00;;;;;;;6.53;100.00;102690.44;5085452;28;20036;-54
2022/10/19 07:07:14;;;;;;;22.80;10.70;;;;;;;6.56;100.00;102685.06;5081671;28;20040;-55
2022/10/19 07:09:39;;;;;;;19.70;10.77;;;;;;;6.58;100.00;102682.38;5066004;28;20597;-54
2022/10/19 07:12:05;;;;;;;18.95;10.90;;;;;;;6.60;100.00;102691.97;5082871;28;20115;-53
2022/10/19 07:14:30;;;;;;;23.17;11.68;;;;;;;6.63;100.00;102691.03;5084056;28;21301;-53
2022/10/19 07:16:56;;;;;;;14.10;10.38;;;;;;;6.64;100.00;102691.00;5081401;28;20422;-54
2022/10/19 07:19:24;;;;;;;19.33;10.40;;;;;;;6.67;100.00;102701.44;5088081;28;20031;-54
2022/10/19 07:21:50;;;;;;;24.20;11.05;;;;;;;6.73;100.00;102699.50;5084767;28;20032;-52
2022/10/19 07:24:15;;;;;;;17.52;10.98;;;;;;;6.77;100.00;102695.88;5084958;28;20656;-53
2022/10/19 07:26:41;;;;;;;17.38;10.43;;;;;;;6.81;100.00;102695.75;5085428;28;20103;-54
2022/10/19 07:29:06;;;;;;;19.65;11.05;;;;;;;6.88;100.00;102692.88;5087863;28;20040;-54
2022/10/19 07:31:32;;;;;;;18.05;10.05;;;;;;;6.91;100.00;102696.31;5097356;28;20020;-54
2022/10/19 07:33:59;;;;;;;17.25;10.35;;;;;;;6.95;100.00;102692.66;5097828;28;20046;-54
2022/10/19 07:36:26;;;;;;;17.73;10.95;;;;;;;7.01;100.00;102694.22;5095235;28;20055;-54
2022/10/19 07:38:52;;;;;;;19.15;11.13;;;;;;;7.06;100.00;102683.53;5095930;28;20051;-53
2022/10/19 07:41:20;;;;;;;18.30;10.95;;;;;;;7.10;100.00;102688.66;5097041;28;20036;-55
2022/10/19 07:43:46;;;;;;;20.75;10.68;;;;;;;7.17;100.00;102689.34;5092966;28;20036;-53
2022/10/19 07:46:14;;;;;;;19.10;10.65;;;;;;;7.25;100.00;102691.72;5091599;28;20044;-56
2022/10/19 07:48:40;;;;;;;16.73;10.50;;;;;;;7.31;100.00;102687.09;5088142;28;20102;-54
2022/10/19 07:51:07;;;;;;;20.45;11.98;;;;;;;7.38;100.00;102678.03;5096626;28;20032;-54
2022/10/19 07:53:33;;;;;;;13.45;11.13;;;;;;;7.46;100.00;102680.44;5093549;28;20043;-52
2022/10/19 07:56:10;;;;;;;21.25;11.00;;;;;;;7.56;100.00;102681.84;5083622;28;20027;-54
2022/10/19 07:58:36;;;;;;;15.50;9.95;;;;;;;7.65;100.00;102677.16;5089628;28;20098;-55
2022/10/19 08:01:03;;;;;;;20.88;10.23;;;;;;;7.76;100.00;102674.97;5102116;28;20020;-55
2022/10/19 08:03:29;;;;;;;17.42;10.43;;;;;;;7.87;100.00;102670.19;5097609;28;20458;-55
2022/10/19 08:06:05;;;;;;;15.48;10.10;;;;;;;7.98;100.00;102669.81;5094111;28;20044;-54
2022/10/19 08:08:30;;;;;;;14.18;9.13;;;;;;;8.10;100.00;102673.78;5099182;28;20043;-53
2022/10/19 08:10:56;;;;;;;15.73;9.68;;;;;;;8.22;100.00;102672.47;5099983;28;20024;-58
2022/10/19 08:13:22;;;;;;;21.92;9.73;;;;;;;8.32;100.00;102671.19;5093408;28;20062;-55
2022/10/19 08:15:47;;;;;;;15.40;9.73;;;;;;;8.45;100.00;102667.19;5101113;28;20045;-52
2022/10/19 08:18:13;;;;;;;17.00;8.95;;;;;;;8.62;100.00;102677.13;5084712;28;20903;-53
2022/10/19 08:20:43;;;;;;;15.52;8.95;;;;;;;8.73;100.00;102659.94;5098864;28;20137;-54
2022/10/19 08:23:08;;;;;;;14.88;8.95;;;;;;;8.86;100.00;102662.06;5097619;28;20017;-55
2022/10/19 08:25:33;;;;;;;12.82;8.60;;;;;;;8.99;100.00;102653.59;5102651;28;20024;-55
2022/10/19 08:27:59;;;;;;;20.33;9.73;;;;;;;9.11;100.00;102641.63;5089244;28;20422;-54
2022/10/19 08:30:24;;;;;;;16.52;9.82;;;;;;;9.24;100.00;102645.50;5093757;28;20024;-52
2022/10/19 08:32:49;;;;;;;19.50;8.73;;;;;;;9.35;100.00;102630.00;5092586;28;20470;-52
2022/10/19 08:35:15;;;;;;;14.10;8.80;;;;;;;9.46;100.00;102629.53;5081591;28;20611;-53
2022/10/19 08:37:40;;;;;;;12.50;7.90;;;;;;;9.59;100.00;102624.53;5074555;28;20227;-53
2022/10/19 08:40:19;;;;;;;15.25;7.90;;;;;;;9.68;100.00;102629.47;5085311;28;20089;-54
2022/10/19 08:43:12;;;;;;;13.70;7.35;;;;;;;9.77;100.00;102615.75;5062900;28;20473;-52
2022/10/19 08:45:41;;;;;;;11.38;7.40;;;;;;;9.85;100.00;102631.34;5089444;28;20028;-52
2022/10/19 08:48:29;;;;;;;13.45;7.38;;;;;;;9.92;100.00;102624.84;5088946;28;20074;-52
2022/10/19 08:50:56;;;;;;;17.58;6.97;;;;;;;9.98;100.00;102621.91;5089901;28;20028;-53
2022/10/19 08:53:52;;;;;;;16.52;6.90;;;;;;;10.05;100.00;102627.78;5090939;28;20024;-51
2022/10/19 08:56:35;;;;;;;14.95;6.13;;;;;;;10.13;100.00;102620.34;5087382;28;20443;-52
2022/10/19 08:59:06;;;;;;;20.30;6.35;;;;;;;10.21;99.86;102622.66;5084721;28;20033;-53
2022/10/19 09:01:39;;;;;;;15.02;6.70;;;;;;;10.29;99.39;102623.16;5085881;28;20024;-53
2022/10/19 09:04:18;;;;;;;19.00;7.38;;;;;;;10.41;99.90;102620.88;5077254;28;20039;-49
2022/10/19 09:06:48;;;;;;;13.10;6.35;;;;;;;10.52;98.91;102619.44;5087094;28;20020;-52
2022/10/19 09:09:17;;;;;;;16.05;6.10;;;;;;;10.66;97.76;102616.13;5083880;28;20077;-53
2022/10/19 09:11:47;;;;;;;16.67;6.13;;;;;;;10.78;96.02;102606.69;5086909;28;20024;-53
2022/10/19 09:14:21;;;;;;;16.48;6.50;;;;;;;10.93;96.09;102610.38;5089618;28;20388;-53
2022/10/19 09:16:47;;;;;;;13.40;6.45;;;;;;;11.08;95.10;102614.06;5085556;28;20032;-54
2022/10/19 09:19:24;;;;;;;12.30;5.75;;;;;;;11.21;94.04;102631.13;5087998;28;20012;-54
2022/10/19 09:21:55;;;;;;;17.63;6.07;;;;;;;11.33;93.62;102634.94;5090053;28;20035;-53
2022/10/19 09:24:27;;;;;;;25.63;6.55;;;;;;;11.50;93.55;102626.09;5091999;28;20032;-52
2022/10/19 09:26:55;;;;;;;16.63;5.45;;;;;;;11.63;92.36;102635.16;5085726;28;20032;-53
2022/10/19 09:29:35;;;;;;;9.93;5.10;;;;;;;11.73;91.00;102630.22;5086618;28;20033;-52
2022/10/19 09:32:03;;;;;;;11.82;4.68;;;;;;;11.87;90.76;102626.81;5091872;28;20031;-49
2022/10/19 09:34:34;;;;;;;8.63;4.72;;;;;;;11.97;88.74;102616.56;5094866;28;20115;-49
2022/10/19 09:36:59;;;;;;;14.77;4.65;;;;;;;12.12;88.50;102626.38;5094920;28;20111;-50
2022/10/19 09:39:26;;;;;;;10.63;4.03;;;;;;;12.17;86.02;102612.81;5095828;28;20099;-48
2022/10/19 09:42:07;;;;;;;14.27;4.32;;;;;;;12.24;85.59;102616.88;5096189;28;20028;-49
2022/10/19 09:44:32;;;;;;;12.50;3.63;;;;;;;12.31;85.02;102615.56;5088966;28;20027;-49
2022/10/19 09:47:52;;;;;;;12.00;3.92;;;;;;;12.38;86.25;102619.59;5095131;28;20509;-48
2022/10/19 09:50:22;;;;;;;14.02;4.15;;;;;;;12.50;85.13;102602.06;5007874;28;20058;-52
2022/10/19 09:52:53;;;;;;;9.52;3.78;;;;;;;12.67;84.18;102594.91;5079461;28;20958;-49
2022/10/19 09:55:25;;;;;;;12.48;3.55;;;;;;;12.72;82.71;102588.38;5095011;28;20024;-50
2022/10/19 09:58:12;;;;;;;12.35;3.80;;;;;;;12.81;82.32;102587.00;5080626;28;20081;-49
2022/10/19 10:00:43;;;;;;;11.32;3.80;;;;;;;12.85;81.25;102582.34;5094053;28;20101;-48
2022/10/19 10:03:25;;;;;;;10.50;3.83;;;;;;;12.99;83.17;102582.38;5095209;28;20063;-48
2022/10/19 10:05:52;;;;;;;12.27;3.90;;;;;;;13.08;81.24;102573.81;5094938;28;20020;-52
2022/10/19 10:08:21;;;;;;;13.18;3.33;;;;;;;13.19;80.24;102575.88;5092530;28;20081;-52
2022/10/19 10:10:55;;;;;;;10.75;3.20;;;;;;;13.27;79.47;102580.72;5094876;28;20077;-48
2022/10/19 10:13:24;;;;;;;7.30;3.28;;;;;;;13.35;79.99;102581.16;5095165;28;20073;-49
2022/10/19 10:15:59;;;;;;;10.57;3.13;;;;;;;13.38;79.33;102577.44;5087255;28;20082;-51
2022/10/19 10:18:27;;;;;;;16.42;3.33;;;;;;;13.45;78.18;102584.13;5093797;28;20031;-50
2022/10/19 10:21:09;;;;;;;7.53;3.15;;;;;;;13.52;76.85;102590.78;5088704;28;20048;-48
2022/10/19 10:23:35;;;;;;;13.60;3.47;;;;;;;13.61;76.14;102584.06;5091648;28;20501;-51
2022/10/19 10:26:02;;;;;;;11.02;3.03;;;;;;;13.71;76.33;102579.84;5091366;28;20048;-50
2022/10/19 10:28:29;;;;;;;11.82;3.42;;;;;;;13.83;75.13;102572.88;5059829;28;20020;-52
2022/10/19 10:31:04;;;;;;;10.25;3.10;;;;;;;13.99;75.51;102570.97;5080744;28;20039;-50
2022/10/19 10:33:34;;;;;;;8.57;3.33;;;;;;;14.06;74.12;102574.94;5081357;28;20031;-50
2022/10/19 10:36:07;;;;;;;6.00;3.20;;;;;;;14.13;73.59;102566.56;5059961;28;20040;-47
2022/10/19 10:38:40;;;;;;;11.63;3.30;;;;;;;14.25;74.47;102557.72;5090967;28;20020;-50
2022/10/19 10:41:13;;;;;;;9.13;3.47;;;;;;;14.35;73.30;102556.16;5088706;28;20037;-51
2022/10/19 10:44:08;;;;;;;14.82;3.63;;;;;;;14.50;74.26;102543.59;5085762;28;20558;-49
2022/10/19 10:46:51;;;;;;;8.52;2.80;;;;;;;14.65;73.48;102548.94;5064892;28;20082;-49
2022/10/19 10:49:36;;;;;;;13.77;3.30;;;;;;;14.93;75.28;102551.47;5072800;28;20040;-49
2022/10/19 10:52:17;;;;;;;11.95;3.40;;;;;;;15.05;72.28;102551.59;5081633;28;20529;-48
2022/10/19 10:55:02;;;;;;;12.13;3.47;;;;;;;15.16;71.48;102544.53;5092895;28;20103;-48
2022/10/19 10:57:33;;;;;;;8.48;3.67;;;;;;;15.21;68.92;102532.69;5090469;28;20036;-51
2022/10/19 11:00:11;;;;;;;11.23;3.78;;;;;;;15.18;67.81;102537.25;5092645;28;20473;-50
2022/10/19 11:02:59;;;;;;;10.82;3.10;;;;;;;15.19;68.01;102527.44;5092698;28;20045;-49
2022/10/19 11:05:29;;;;;;;12.65;3.33;;;;;;;15.26;69.15;102542.09;5074776;28;20043;-50
2022/10/19 11:08:23;;;;;;;12.32;3.60;;;;;;;15.34;70.11;102525.50;5092012;28;20031;-50
2022/10/19 11:11:01;;;;;;;10.13;3.53;;;;;;;15.45;69.22;102524.72;5088454;28;20351;-52
2022/10/19 11:13:36;;;;;;;8.55;3.33;;;;;;;15.53;67.97;102522.38;5089523;28;20027;-54
2022/10/19 11:16:20;;;;;;;12.45;3.70;;;;;;;15.61;67.92;102514.66;5092071;28;20162;-49
2022/10/19 11:18:51;;;;;;;8.98;3.28;;;;;;;15.73;67.24;102515.59;5091188;28;20490;-50
2022/10/19 11:21:36;;;;;;;10.68;3.70;;;;;;;15.78;67.07;102510.78;5112082;28;20008;-47
2022/10/19 11:24:30;;;;;;;10.82;3.75;;;;;;;15.78;67.36;102499.22;5110117;28;20024;-52
2022/10/19 11:27:25;;;;;;;8.85;4.00;;;;;;;15.73;66.65;102494.16;5112330;28;20016;-53